Shaw Air Force Base
KSSC : rendu visible

Aérodrome :











RETROUVEZ-NOUS SUR...

 
LOGIN :

S'inscrire | Disclaimer

   EN    FR    IT 

 









Légende :    VFR   VFR Marginal   IFR   IFR Intensif   IFR Très Intensif
Visi : 
Plafond : 
>= 8 km
>= 3000ft
5 à 8 km
1000 à 3000 ft
1500m à 5 km
500 à 1000 ft
800 à 1500m
200 à 500 ft
< 800m
< 200 ft
Symboles :   Orages  Brouillard  Fortes neiges  Fortes précipitations  Vent > 20 kt






- Altitude de l'aérodrome : 241 ft


KSSC - Shaw Air Force Base

DERNIER METAR :
  • 211656Z AUTO 00000KT 10SM CLR 15/03 A3028 RMK AO2 SLP256 T01510026 $

METARs EXPIRÉS :
  • 211556Z AUTO 00000KT 10SM CLR 13/02 A3032 RMK AO2 SLP270 T01300022 $
  • 211456Z AUTO 10005KT 10SM CLR 11/03 A3033 RMK AO2 SLP273 T01090025 50011 $
  • 211356Z AUTO 07006KT 10SM CLR 08/03 A3032 RMK AO2 SLP270 T00820029 $

TAF TAF KSSC
Valide du 21 à 16h jusqu'au 22 à 22h UTC


211600Z 2116/2222 VRB06KT 9999 SKC QNH3023INS
BECMG 2120/2121 20006KT 9999 FEW180 SCT240 QNH3011INS
BECMG 2215/2216 23010G15KT 9999 FEW120 SCT170 QNH3002INS TX18/2120Z TN07/2211Z



MET'MAP, la Météo Aéronautique d'un coup d'oeil ! - Copyright ORBIFLY Décembre 2007 - Disclaimer

ORBIFLY MET'MAP TEAM :

Programmation & Développement : Alexandra Zaïnal
Conception & Développement : Baudouin d'Aumeries
Co-Programmation & Développement : Marc-Olivier Méhu
Soutien technique & logistique : Manuel Goepfert

Contact : metmap@orbifly.com




SOURCES & CREDITS :

   NOAA       Earth
Advisory